Time;durP1;ratioP1;P1;durP2;ratioP2;P2;SDS_P1;SDS_P2;PMS_P1;PMS_P2;Temp;Humidity;BMP_temperature;BMP_pressure;BME280_temperature;BME280_humidity;BME280_pressure;Samples;Min_cycle;Max_cycle;Signal;HPM_P1;HPM_P2
2022/07/07 00:00:07;;;;;;;;;;;;;;;13.63;81.13;96526.50;6273293;28;19924;-66
2022/07/07 00:03:10;;;;;;;;;;;;;;;13.57;81.33;96530.50;6272758;28;19925;-67
2022/07/07 00:06:14;;;;;;;;;;;;;;;13.61;81.47;96531.06;6255234;28;19921;-65
2022/07/07 00:09:18;;;;;;;;;;;;;;;13.65;81.21;96538.63;6273085;28;20311;-66
2022/07/07 00:12:22;;;;;;;;;;;;;;;13.72;81.35;96544.25;6272901;28;19924;-67
2022/07/07 00:15:25;;;;;;;;;;;;;;;13.78;81.37;96543.72;6272565;28;19925;-66
2022/07/07 00:18:29;;;;;;;;;;;;;;;13.87;81.29;96552.69;6272812;28;19924;-66
2022/07/07 00:21:33;;;;;;;;;;;;;;;13.91;81.08;96554.97;6271122;28;19924;-66
2022/07/07 00:24:36;;;;;;;;;;;;;;;13.92;80.91;96551.34;6272588;28;20306;-66
2022/07/07 00:27:39;;;;;;;;;;;;;;;13.87;80.84;96558.84;6272532;28;19924;-65
2022/07/07 00:30:43;;;;;;;;;;;;;;;13.82;80.96;96560.19;6272256;28;20089;-66
2022/07/07 00:33:47;;;;;;;;;;;;;;;13.75;81.04;96559.84;6272264;28;20318;-66
2022/07/07 00:36:51;;;;;;;;;;;;;;;13.67;81.15;96564.94;6272372;28;19925;-65
2022/07/07 00:39:55;;;;;;;;;;;;;;;13.62;81.35;96567.13;6270726;28;19924;-65
2022/07/07 00:43:00;;;;;;;;;;;;;;;13.63;81.46;96572.28;6272136;28;20302;-65
2022/07/07 00:46:03;;;;;;;;;;;;;;;13.68;81.76;96577.19;6271401;28;19925;-65
2022/07/07 00:49:06;;;;;;;;;;;;;;;13.68;81.43;96574.56;6272123;28;19978;-65
2022/07/07 00:52:10;;;;;;;;;;;;;;;13.65;81.63;96578.28;6271987;28;20302;-65
2022/07/07 00:55:13;;;;;;;;;;;;;;;13.64;81.63;96591.63;6271547;28;20457;-65
2022/07/07 00:58:16;;;;;;;;;;;;;;;13.66;81.94;96587.06;6271834;28;20402;-65
2022/07/07 01:01:18;;;;;;;;;;;;;;;13.76;81.61;96588.00;6271755;28;20318;-65
2022/07/07 01:04:22;;;;;;;;;;;;;;;13.89;81.01;96603.66;6271618;28;20306;-65
2022/07/07 01:07:26;;;;;;;;;;;;;;;14.02;80.51;96611.44;6271607;28;20391;-65
2022/07/07 01:10:30;;;;;;;;;;;;;;;14.15;80.37;96612.09;6270242;28;19924;-65
2022/07/07 01:13:32;;;;;;;;;;;;;;;14.29;80.24;96617.06;6271299;28;19929;-65
2022/07/07 01:16:36;;;;;;;;;;;;;;;14.46;80.45;96623.59;6253730;28;19929;-65
2022/07/07 01:19:40;;;;;;;;;;;;;;;14.65;79.78;96622.06;6271113;28;19925;-65
2022/07/07 01:22:46;;;;;;;;;;;;;;;14.81;79.40;96625.09;6271284;28;19931;-65
2022/07/07 01:25:49;;;;;;;;;;;;;;;14.96;79.56;96631.69;6269826;28;20414;-65
2022/07/07 01:28:52;;;;;;;;;;;;;;;15.12;79.76;96636.53;6270994;28;20019;-65
2022/07/07 01:31:58;;;;;;;;;;;;;;;15.31;78.92;96645.50;6270790;28;19925;-65
2022/07/07 01:35:03;;;;;;;;;;;;;;;15.39;79.14;96650.97;6271379;28;19932;-65
2022/07/07 01:38:06;;;;;;;;;;;;;;;15.49;78.34;96649.22;6270844;28;19924;-65
2022/07/07 01:41:10;;;;;;;;;;;;;;;15.53;78.33;96649.75;6270826;28;19924;-65
2022/07/07 01:44:13;;;;;;;;;;;;;;;15.60;78.43;96650.91;6270784;28;19925;-65
2022/07/07 01:47:17;;;;;;;;;;;;;;;15.69;78.36;96656.25;6270850;28;19925;-65
2022/07/07 01:50:21;;;;;;;;;;;;;;;15.84;78.18;96655.88;6270815;28;19925;-65
2022/07/07 01:53:25;;;;;;;;;;;;;;;15.92;77.82;96661.31;6270626;28;20283;-65
2022/07/07 01:56:28;;;;;;;;;;;;;;;15.97;77.66;96664.41;6271526;28;20386;-65
2022/07/07 01:59:32;;;;;;;;;;;;;;;16.09;77.43;96665.94;6275955;28;19968;-64
2022/07/07 02:02:36;;;;;;;;;;;;;;;16.22;77.48;96663.03;6275722;28;19924;-65
2022/07/07 02:05:40;;;;;;;;;;;;;;;16.33;77.34;96659.38;6275733;28;19925;-65
2022/07/07 02:08:44;;;;;;;;;;;;;;;16.39;76.88;96664.16;6275641;28;20314;-65
2022/07/07 02:11:48;;;;;;;;;;;;;;;16.37;76.70;96668.75;6275526;28;20386;-65
2022/07/07 02:14:51;;;;;;;;;;;;;;;16.30;76.86;96668.47;6274155;28;19964;-65
2022/07/07 02:17:55;;;;;;;;;;;;;;;16.25;77.29;96669.84;6275216;28;19924;-64
2022/07/07 02:20:59;;;;;;;;;;;;;;;16.27;77.11;96671.41;6273765;28;19925;-65
2022/07/07 02:24:03;;;;;;;;;;;;;;;16.45;77.17;96673.38;6275252;28;19924;-65
2022/07/07 02:27:06;;;;;;;;;;;;;;;16.69;76.47;96678.22;6275244;28;19932;-65
2022/07/07 02:30:10;;;;;;;;;;;;;;;16.82;76.15;96682.28;6275391;28;19924;-65
2022/07/07 02:33:12;;;;;;;;;;;;;;;16.85;74.93;96683.84;6273559;28;20310;-64
2022/07/07 02:36:15;;;;;;;;;;;;;;;16.71;74.84;96684.25;6275190;28;19924;-66
2022/07/07 02:39:19;;;;;;;;;;;;;;;16.54;74.44;96676.00;6275109;28;19925;-65
2022/07/07 02:42:23;;;;;;;;;;;;;;;16.39;74.21;96685.41;6274841;28;19924;-64
2022/07/07 02:45:27;;;;;;;;;;;;;;;16.25;74.08;96693.75;6274670;28;19925;-65
2022/07/07 02:48:29;;;;;;;;;;;;;;;16.13;73.93;96698.34;6274470;28;19925;-64
2022/07/07 02:51:32;;;;;;;;;;;;;;;15.98;73.45;96699.75;6274243;28;20394;-64
2022/07/07 02:54:36;;;;;;;;;;;;;;;15.89;72.46;96698.75;6274308;28;19925;-65
2022/07/07 02:57:40;;;;;;;;;;;;;;;15.89;71.41;96706.72;6274415;28;19924;-65
2022/07/07 03:00:44;;;;;;;;;;;;;;;15.97;70.77;96706.88;6274403;28;19925;-65
2022/07/07 03:03:48;;;;;;;;;;;;;;;16.08;70.12;96709.41;6274301;28;19925;-64
2022/07/07 03:06:52;;;;;;;;;;;;;;;16.20;69.09;96714.59;6274138;28;20275;-65
2022/07/07 03:09:55;;;;;;;;;;;;;;;16.33;68.79;96720.44;6274084;28;19925;-64
2022/07/07 03:12:58;;;;;;;;;;;;;;;16.50;68.12;96719.78;6274067;28;20290;-65
2022/07/07 03:16:01;;;;;;;;;;;;;;;16.60;67.41;96719.75;6273923;28;20396;-65
2022/07/07 03:19:04;;;;;;;;;;;;;;;16.63;67.19;96723.97;6273889;28;19924;-64
2022/07/07 03:22:08;;;;;;;;;;;;;;;16.60;67.22;96733.88;6273891;28;20287;-64
2022/07/07 03:25:12;;;;;;;;;;;;;;;16.59;66.15;96739.34;6273699;28;19925;-65
2022/07/07 03:28:16;;;;;;;;;;;;;;;16.51;65.34;96742.69;6273592;28;19929;-65
2022/07/07 03:31:20;;;;;;;;;;;;;;;16.48;65.69;96745.63;6272961;28;19963;-65
2022/07/07 03:34:26;;;;;;;;;;;;;;;16.51;65.33;96748.00;6272827;28;20219;-65
2022/07/07 03:37:32;;;;;;;;;;;;;;;16.56;64.51;96753.75;6273409;28;19924;-66
2022/07/07 03:40:36;;;;;;;;;;;;;;;16.66;62.73;96751.06;6273333;28;19928;-64
2022/07/07 03:43:40;;;;;;;;;;;;;;;16.67;62.49;96768.69;6273159;28;20011;-65
2022/07/07 03:46:44;;;;;;;;;;;;;;;16.70;62.85;96772.88;6273317;28;19924;-65
2022/07/07 03:49:47;;;;;;;;;;;;;;;16.79;62.94;96778.25;6273160;28;19925;-65
2022/07/07 03:52:51;;;;;;;;;;;;;;;16.93;62.61;96781.44;6272960;28;20310;-65
2022/07/07 03:55:55;;;;;;;;;;;;;;;17.04;62.23;96781.28;6254993;28;20801;-65
2022/07/07 03:58:59;;;;;;;;;;;;;;;17.16;62.06;96781.97;6272841;28;19925;-65
2022/07/07 04:02:03;;;;;;;;;;;;;;;17.24;61.61;96782.13;6272517;28;19924;-65
2022/07/07 04:05:06;;;;;;;;;;;;;;;17.32;60.68;96787.53;6272820;28;19925;-65
2022/07/07 04:08:10;;;;;;;;;;;;;;;17.38;60.10;96780.78;6272419;28;19925;-65
2022/07/07 04:11:12;;;;;;;;;;;;;;;17.45;59.87;96788.06;6254952;28;19925;-64
2022/07/07 04:14:16;;;;;;;;;;;;;;;17.51;59.59;96787.47;6272196;28;19925;-65
2022/07/07 04:17:19;;;;;;;;;;;;;;;17.61;59.06;96794.63;6254549;28;19924;-64
2022/07/07 04:20:22;;;;;;;;;;;;;;;17.69;58.06;96797.38;6272475;28;19925;-65
2022/07/07 04:23:26;;;;;;;;;;;;;;;17.73;57.97;96804.09;6272084;28;19924;-64
2022/07/07 04:26:28;;;;;;;;;;;;;;;17.81;57.51;96806.88;6272526;28;19937;-64
2022/07/07 04:29:32;;;;;;;;;;;;;;;17.92;57.43;96804.03;6272223;28;19934;-65
2022/07/07 04:32:34;;;;;;;;;;;;;;;18.06;56.43;96804.53;6271896;28;19925;-66
2022/07/07 04:35:38;;;;;;;;;;;;;;;18.20;56.79;96806.69;6272105;28;20031;-65
2022/07/07 04:38:42;;;;;;;;;;;;;;;18.38;56.27;96810.25;6272072;28;19925;-66
2022/07/07 04:41:46;;;;;;;;;;;;;;;18.60;56.02;96808.16;6271817;28;20319;-64
2022/07/07 04:44:50;;;;;;;;;;;;;;;18.79;55.88;96812.50;6272057;28;19935;-64
2022/07/07 04:47:54;;;;;;;;;;;;;;;19.38;54.90;96818.19;6271726;28;19932;-65
2022/07/07 04:50:58;;;;;;;;;;;;;;;21.51;49.31;96819.75;6271566;28;20398;-65
2022/07/07 04:54:01;;;;;;;;;;;;;;;24.51;44.40;96832.34;6272306;28;20295;-65
2022/07/07 04:57:05;;;;;;;;;;;;;;;25.03;42.28;96831.28;6271714;28;19925;-65
2022/07/07 05:00:08;;;;;;;;;;;;;;;26.25;39.83;96835.63;6271456;28;19925;-66
2022/07/07 05:03:10;;;;;;;;;;;;;;;28.67;36.03;96844.63;6271120;28;20365;-65
2022/07/07 05:06:14;;;;;;;;;;;;;;;28.22;35.25;96831.84;6271375;28;19925;-63
2022/07/07 05:09:18;;;;;;;;;;;;;;;26.91;38.56;96836.97;6271229;28;19924;-64
2022/07/07 05:12:22;;;;;;;;;;;;;;;29.68;33.58;96844.69;6271405;28;19936;-64
2022/07/07 05:15:26;;;;;;;;;;;;;;;33.79;29.80;96849.22;6271157;28;19925;-64
2022/07/07 05:18:32;;;;;;;;;;;;;;;35.34;27.82;96853.81;6271175;28;19925;-65
2022/07/07 05:21:36;;;;;;;;;;;;;;;33.15;28.97;96848.63;6270924;28;19929;-64
2022/07/07 05:24:40;;;;;;;;;;;;;;;33.32;27.93;96846.78;6271153;28;19924;-65
2022/07/07 05:27:44;;;;;;;;;;;;;;;35.73;26.79;96850.94;6270792;28;19924;-65
2022/07/07 05:30:48;;;;;;;;;;;;;;;34.54;29.02;96855.31;6270121;28;19968;-64
2022/07/07 05:33:52;;;;;;;;;;;;;;;32.06;30.23;96847.38;6270521;28;19928;-64
2022/07/07 05:36:56;;;;;;;;;;;;;;;30.76;32.53;96848.00;6270575;28;20402;-65
2022/07/07 05:39:58;;;;;;;;;;;;;;;32.05;29.72;96845.72;6270815;28;19920;-65
2022/07/07 05:43:03;;;;;;;;;;;;;;;35.98;25.21;96853.03;6270679;28;20337;-65
2022/07/07 05:46:09;;;;;;;;;;;;;;;35.64;24.27;96852.47;6270635;28;19925;-64
2022/07/07 05:49:12;;;;;;;;;;;;;;;32.95;26.88;96849.88;6270774;28;20050;-65
2022/07/07 05:52:16;;;;;;;;;;;;;;;34.73;25.54;96859.38;6270716;28;19925;-65
2022/07/07 05:55:19;;;;;;;;;;;;;;;38.34;21.79;96855.47;6270524;28;19925;-65
2022/07/07 05:58:23;;;;;;;;;;;;;;;41.69;18.91;96853.25;6253244;28;19932;-65
2022/07/07 06:01:27;;;;;;;;;;;;;;;42.37;17.75;96857.38;6270789;28;19932;-65
2022/07/07 06:04:31;;;;;;;;;;;;;;;38.55;19.89;96842.50;6270296;28;19948;-65
2022/07/07 06:07:34;;;;;;;;;;;;;;;36.14;21.67;96846.59;6270197;28;20391;-65
2022/07/07 06:10:38;;;;;;;;;;;;;;;36.07;21.19;96846.03;6270165;28;20440;-65
2022/07/07 06:13:41;;;;;;;;;;;;;;;39.70;18.26;96853.53;6270321;28;19924;-64
2022/07/07 06:16:45;;;;;;;;;;;;;;;43.43;15.60;96872.13;6270396;28;20019;-65
2022/07/07 06:19:49;;;;;;;;;;;;;;;46.79;14.19;96871.78;6270364;28;19924;-65
2022/07/07 06:22:52;;;;;;;;;;;;;;;49.19;12.77;96874.22;6270396;28;19924;-65
2022/07/07 06:25:57;;;;;;;;;;;;;;;50.54;11.51;96874.59;6270293;28;19932;-65
2022/07/07 06:29:00;;;;;;;;;;;;;;;51.12;10.26;96879.66;6270060;28;19932;-65
2022/07/07 06:32:04;;;;;;;;;;;;;;;49.68;12.66;96874.16;6270297;28;19924;-65
2022/07/07 06:35:08;;;;;;;;;;;;;;;45.90;12.34;96859.59;6270267;28;19925;-65
2022/07/07 06:38:14;;;;;;;;;;;;;;;45.24;12.79;96857.72;6270272;28;20516;-65
2022/07/07 06:41:17;;;;;;;;;;;;;;;46.36;12.33;96864.41;6268621;28;20409;-65
2022/07/07 06:44:21;;;;;;;;;;;;;;;45.53;11.77;96858.28;6273305;28;19932;-64
2022/07/07 06:47:24;;;;;;;;;;;;;;;45.38;12.47;96854.81;6273275;28;19925;-65
2022/07/07 06:50:29;;;;;;;;;;;;;;;47.57;11.17;96876.13;6274571;28;20290;-64
2022/07/07 06:53:32;;;;;;;;;;;;;;;49.91;10.05;96866.03;6274419;28;19925;-64
2022/07/07 06:56:36;;;;;;;;;;;;;;;51.35;9.24;96887.41;6274436;28;20022;-65
2022/07/07 06:59:39;;;;;;;;;;;;;;;52.33;8.46;96894.72;6274316;28;19924;-64
2022/07/07 07:02:46;;;;;;;;;;;;;;;51.62;9.15;96897.66;6272960;28;19921;-66
2022/07/07 07:05:48;;;;;;;;;;;;;;;49.57;10.26;96889.78;6256473;28;20023;-65
2022/07/07 07:08:53;;;;;;;;;;;;;;;50.71;8.69;96887.47;6273962;28;19925;-65
2022/07/07 07:11:55;;;;;;;;;;;;;;;52.01;8.10;96903.31;6256270;28;19935;-65
2022/07/07 07:15:00;;;;;;;;;;;;;;;48.42;8.74;96890.78;6273982;28;19925;-65
2022/07/07 07:18:06;;;;;;;;;;;;;;;46.54;9.86;96878.25;6256482;28;19924;-64
2022/07/07 07:21:11;;;;;;;;;;;;;;;49.34;8.26;96881.91;6273702;28;19924;-65
2022/07/07 07:24:14;;;;;;;;;;;;;;;51.70;8.30;96897.81;6273307;28;19925;-65
2022/07/07 07:27:19;;;;;;;;;;;;;;;52.82;7.42;96890.41;6272283;28;19924;-64
2022/07/07 07:30:23;;;;;;;;;;;;;;;52.20;6.62;96890.44;6273574;28;19921;-65
2022/07/07 07:33:26;;;;;;;;;;;;;;;50.71;7.33;96881.84;6248793;28;20026;-64
2022/07/07 07:36:30;;;;;;;;;;;;;;;50.56;7.42;96885.44;6247601;28;19925;-64
2022/07/07 07:39:34;;;;;;;;;;;;;;;50.35;7.36;96870.88;6247746;28;20287;-66
2022/07/07 07:42:37;;;;;;;;;;;;;;;49.62;7.66;96865.22;6248285;28;20390;-66
2022/07/07 07:45:41;;;;;;;;;;;;;;;49.08;7.59;96873.88;6248153;28;19924;-65
2022/07/07 07:48:44;;;;;;;;;;;;;;;49.54;7.68;96862.53;6248388;28;19925;-64
2022/07/07 07:51:48;;;;;;;;;;;;;;;48.52;7.80;96863.25;6248777;28;19925;-65
2022/07/07 07:54:52;;;;;;;;;;;;;;;47.64;8.99;96851.28;6245977;28;19925;-65
2022/07/07 07:57:56;;;;;;;;;;;;;;;49.83;7.69;96862.22;6246921;28;20310;-65
2022/07/07 08:01:00;;;;;;;;;;;;;;;50.72;6.96;96866.66;6248018;28;19944;-65
2022/07/07 08:04:03;;;;;;;;;;;;;;;49.73;7.39;96865.53;6247807;28;20395;-65
2022/07/07 08:07:06;;;;;;;;;;;;;;;50.45;6.76;96873.13;6247903;28;19925;-65
2022/07/07 08:10:11;;;;;;;;;;;;;;;52.06;5.99;96888.97;6247610;28;19925;-64
2022/07/07 08:13:15;;;;;;;;;;;;;;;53.42;6.89;96889.75;6248094;28;19933;-65
2022/07/07 08:16:18;;;;;;;;;;;;;;;54.28;5.07;96886.84;6247726;28;19924;-65
2022/07/07 08:19:21;;;;;;;;;;;;;;;53.47;6.58;96886.63;6247495;28;20380;-66
2022/07/07 08:22:23;;;;;;;;;;;;;;;49.60;8.16;96872.31;6247428;28;19925;-64
2022/07/07 08:25:26;;;;;;;;;;;;;;;45.67;9.76;96853.38;6247532;28;19924;-65
2022/07/07 08:28:29;;;;;;;;;;;;;;;46.65;8.83;96862.81;6247208;28;20009;-65
2022/07/07 08:31:33;;;;;;;;;;;;;;;46.99;8.28;96863.81;6256547;28;19924;-64
2022/07/07 08:34:37;;;;;;;;;;;;;;;43.82;10.13;96846.53;6272065;28;19931;-65
2022/07/07 08:37:41;;;;;;;;;;;;;;;40.41;11.58;96846.59;6270345;28;19925;-65
2022/07/07 08:40:44;;;;;;;;;;;;;;;39.35;12.64;96846.31;6271723;28;20394;-66
2022/07/07 08:43:47;;;;;;;;;;;;;;;42.09;10.89;96851.75;6270647;28;19924;-64
2022/07/07 08:46:51;;;;;;;;;;;;;;;41.55;11.16;96844.06;6270613;28;20309;-65
2022/07/07 08:49:55;;;;;;;;;;;;;;;39.27;12.65;96839.47;6271846;28;19925;-65
2022/07/07 08:53:00;;;;;;;;;;;;;;;36.89;14.22;96838.25;6271334;28;19925;-64
2022/07/07 08:56:05;;;;;;;;;;;;;;;35.29;15.23;96834.63;6271366;28;19932;-65
2022/07/07 08:59:11;;;;;;;;;;;;;;;34.21;15.92;96840.63;6271601;28;19924;-66
2022/07/07 09:02:15;;;;;;;;;;;;;;;34.76;16.44;96836.19;6271366;28;19927;-65
2022/07/07 09:05:19;;;;;;;;;;;;;;;36.73;14.40;96836.56;6271266;28;19925;-65
2022/07/07 09:08:24;;;;;;;;;;;;;;;36.19;14.52;96849.38;6253290;28;20015;-66
2022/07/07 09:11:27;;;;;;;;;;;;;;;34.81;15.47;96838.97;6271068;28;19925;-65
2022/07/07 09:14:47;;;;;;;;;;;;;;;34.03;16.07;96843.59;6269801;28;19975;-66
2022/07/07 09:17:51;;;;;;;;;;;;;;;33.83;16.31;96839.50;6271035;28;19924;-64
2022/07/07 09:20:54;;;;;;;;;;;;;;;34.55;15.81;96835.94;6270957;28;19925;-65
2022/07/07 09:23:58;;;;;;;;;;;;;;;35.12;15.11;96840.19;6270966;28;19925;-65
2022/07/07 09:27:07;;;;;;;;;;;;;;;35.48;15.09;96838.63;6270831;28;20325;-66
2022/07/07 09:30:11;;;;;;;;;;;;;;;37.74;14.11;96846.16;6271059;28;19925;-66
2022/07/07 09:33:17;;;;;;;;;;;;;;;39.58;12.73;96856.63;6270577;28;19925;-66
2022/07/07 09:39:45;;;;;;;;;;;;;;;43.44;10.36;96868.22;6270577;28;19925;-65
2022/07/07 09:42:49;;;;;;;;;;;;;;;44.07;10.25;96881.16;6270315;28;20397;-65
2022/07/07 09:46:05;;;;;;;;;;;;;;;43.90;10.74;96872.69;6270319;28;19924;-65
2022/07/07 09:49:12;;;;;;;;;;;;;;;43.59;10.31;96876.19;6269197;28;20022;-66
2022/07/07 09:52:15;;;;;;;;;;;;;;;43.09;10.60;96867.88;6270606;28;19925;-65
2022/07/07 09:55:19;;;;;;;;;;;;;;;42.70;10.72;96863.66;6270349;28;19925;-67
2022/07/07 09:58:23;;;;;;;;;;;;;;;43.31;10.41;96863.53;6270601;28;19975;-66
2022/07/07 10:01:31;;;;;;;;;;;;;;;43.04;10.77;96870.75;6270349;28;19947;-66
2022/07/07 10:04:37;;;;;;;;;;;;;;;42.61;10.49;96873.81;6270198;28;19972;-65
2022/07/07 10:07:42;;;;;;;;;;;;;;;42.54;10.83;96867.84;6270564;28;19925;-66
2022/07/07 10:10:46;;;;;;;;;;;;;;;43.13;10.19;96874.41;6270407;28;19964;-65
2022/07/07 10:13:51;;;;;;;;;;;;;;;44.25;9.58;96876.56;6270451;28;19931;-65
2022/07/07 10:16:54;;;;;;;;;;;;;;;45.61;8.83;96876.88;6270335;28;19925;-66
2022/07/07 10:19:58;;;;;;;;;;;;;;;45.83;8.60;96875.91;6275097;28;20009;-65
2022/07/07 10:23:01;;;;;;;;;;;;;;;44.35;9.34;96865.19;6257246;28;19925;-65
2022/07/07 10:26:07;;;;;;;;;;;;;;;43.81;9.68;96860.72;6275087;28;20290;-65
2022/07/07 10:29:10;;;;;;;;;;;;;;;44.29;9.14;96857.31;6257543;28;19924;-65
2022/07/07 10:32:15;;;;;;;;;;;;;;;43.34;9.46;96860.13;6274726;28;19932;-66
2022/07/07 10:35:18;;;;;;;;;;;;;;;42.65;10.23;96854.63;6275221;28;19924;-64
2022/07/07 10:38:24;;;;;;;;;;;;;;;41.86;10.65;96847.97;6274851;28;20022;-65
2022/07/07 10:41:27;;;;;;;;;;;;;;;39.45;12.44;96851.78;6274633;28;19920;-66
2022/07/07 10:44:37;;;;;;;;;;;;;;;36.24;15.11;96845.03;6274580;28;20127;-65
2022/07/07 10:47:41;;;;;;;;;;;;;;;34.16;16.87;96843.28;6274530;28;19925;-65
2022/07/07 10:50:46;;;;;;;;;;;;;;;35.44;16.05;96842.13;6274306;28;20488;-65
2022/07/07 10:54:06;;;;;;;;;;;;;;;35.47;16.36;96836.16;6274766;28;19925;-65
2022/07/07 10:57:14;;;;;;;;;;;;;;;34.17;17.98;96834.84;6274765;28;19925;-65
2022/07/07 11:00:27;;;;;;;;;;;;;;;32.73;19.29;96837.97;6274304;28;19925;-65
2022/07/07 11:03:35;;;;;;;;;;;;;;;31.58;20.57;96834.75;6256497;28;19924;-65
2022/07/07 11:06:58;;;;;;;;;;;;;;;31.05;20.66;96838.25;6273950;28;19924;-66
2022/07/07 11:10:11;;;;;;;;;;;;;;;31.01;20.71;96835.16;6274214;28;19931;-65
2022/07/07 11:13:16;;;;;;;;;;;;;;;31.03;20.84;96835.78;6274111;28;20382;-65
2022/07/07 11:16:23;;;;;;;;;;;;;;;30.40;21.56;96839.66;6274030;28;19924;-66
2022/07/07 11:19:32;;;;;;;;;;;;;;;29.87;21.73;96842.06;6273740;28;19928;-65
2022/07/07 11:22:45;;;;;;;;;;;;;;;29.51;22.36;96835.44;6273444;28;19921;-65
2022/07/07 11:25:51;;;;;;;;;;;;;;;29.22;22.81;96843.13;6273417;28;19925;-66
2022/07/07 11:28:57;;;;;;;;;;;;;;;29.53;22.43;96827.91;6272314;28;19947;-66
2022/07/07 11:32:03;;;;;;;;;;;;;;;29.96;22.57;96841.53;6273044;28;19925;-66
2022/07/07 11:35:10;;;;;;;;;;;;;;;29.75;23.40;96855.47;6273558;28;19925;-64
2022/07/07 11:38:12;;;;;;;;;;;;;;;29.27;24.89;96845.16;6273165;28;20387;-65
2022/07/07 11:41:16;;;;;;;;;;;;;;;28.55;25.17;96842.59;6273043;28;19925;-65
2022/07/07 11:44:21;;;;;;;;;;;;;;;28.61;25.04;96839.03;6273425;28;19929;-65
2022/07/07 11:47:25;;;;;;;;;;;;;;;28.92;25.38;96836.59;6255302;28;20317;-66
2022/07/07 11:50:32;;;;;;;;;;;;;;;28.71;27.09;96841.28;6272918;28;19925;-65
2022/07/07 11:53:36;;;;;;;;;;;;;;;28.54;26.20;96846.38;6272824;28;19928;-65
2022/07/07 11:56:40;;;;;;;;;;;;;;;28.28;26.60;96849.09;6272535;28;19925;-65
2022/07/07 11:59:44;;;;;;;;;;;;;;;28.08;27.15;96844.59;6272790;28;20287;-65
2022/07/07 12:02:48;;;;;;;;;;;;;;;27.65;27.33;96847.69;6272543;28;20386;-65
2022/07/07 12:05:51;;;;;;;;;;;;;;;27.28;28.14;96851.81;6272548;28;19931;-65
2022/07/07 12:08:56;;;;;;;;;;;;;;;27.06;29.35;96854.69;6272667;28;19925;-65
2022/07/07 12:12:00;;;;;;;;;;;;;;;26.56;30.03;96858.66;6272609;28;19924;-65
2022/07/07 12:15:07;;;;;;;;;;;;;;;26.28;30.78;96856.81;6272641;28;20394;-65
2022/07/07 12:18:10;;;;;;;;;;;;;;;26.04;31.05;96866.19;6270957;28;19925;-65
2022/07/07 12:21:15;;;;;;;;;;;;;;;25.74;31.74;96865.53;6272143;28;20295;-65
2022/07/07 12:24:22;;;;;;;;;;;;;;;25.28;32.64;96856.03;6272439;28;19928;-66
2022/07/07 12:27:25;;;;;;;;;;;;;;;24.99;33.09;96862.28;6272061;28;20377;-64
2022/07/07 12:30:32;;;;;;;;;;;;;;;24.94;32.74;96875.53;6272054;28;19925;-64
2022/07/07 12:33:37;;;;;;;;;;;;;;;25.15;33.16;96866.66;6272051;28;19925;-65
2022/07/07 12:36:41;;;;;;;;;;;;;;;25.20;32.47;96863.41;6272012;28;19925;-66
2022/07/07 12:39:44;;;;;;;;;;;;;;;25.36;32.23;96868.50;6271884;28;19925;-65
2022/07/07 12:42:48;;;;;;;;;;;;;;;25.56;32.01;96863.28;6271664;28;19925;-65
2022/07/07 12:45:52;;;;;;;;;;;;;;;25.78;32.08;96869.50;6271734;28;20298;-65
2022/07/07 12:48:56;;;;;;;;;;;;;;;25.87;32.26;96865.66;6271948;28;20777;-65
2022/07/07 12:52:00;;;;;;;;;;;;;;;26.09;31.72;96868.31;6271572;28;19921;-65
2022/07/07 12:55:11;;;;;;;;;;;;;;;26.34;31.52;96869.50;6271374;28;19925;-65
2022/07/07 12:58:40;;;;;;;;;;;;;;;26.54;30.92;96872.31;6271439;28;19925;-64
2022/07/07 13:01:49;;;;;;;;;;;;;;;26.76;31.29;96881.16;6271620;28;19928;-65
2022/07/07 13:04:53;;;;;;;;;;;;;;;26.53;31.75;96886.88;6270051;28;19924;-65
2022/07/07 13:07:55;;;;;;;;;;;;;;;26.32;32.49;96893.13;6271205;28;20046;-64
2022/07/07 13:10:59;;;;;;;;;;;;;;;25.98;32.32;96886.69;6271122;28;19921;-65
2022/07/07 13:14:02;;;;;;;;;;;;;;;25.72;32.90;96887.28;6270914;28;19924;-65
2022/07/07 13:17:05;;;;;;;;;;;;;;;25.63;32.71;96882.22;6270930;28;20007;-66
2022/07/07 13:20:08;;;;;;;;;;;;;;;25.69;32.81;96889.53;6270677;28;20298;-65
2022/07/07 13:23:11;;;;;;;;;;;;;;;25.74;33.31;96887.09;6271020;28;20019;-65
2022/07/07 13:26:15;;;;;;;;;;;;;;;25.89;33.22;96895.94;6270307;28;19924;-65
2022/07/07 13:29:19;;;;;;;;;;;;;;;26.19;33.03;96898.47;6252591;28;19956;-66
2022/07/07 13:32:22;;;;;;;;;;;;;;;26.14;32.93;96892.81;6270242;28;19924;-64
2022/07/07 13:35:25;;;;;;;;;;;;;;;26.03;33.28;96901.44;6270166;28;19925;-65
2022/07/07 13:38:29;;;;;;;;;;;;;;;25.71;33.77;96903.66;6270555;28;19989;-66
2022/07/07 13:41:32;;;;;;;;;;;;;;;25.47;34.52;96894.09;6270562;28;19925;-64
2022/07/07 13:44:36;;;;;;;;;;;;;;;25.50;33.99;96901.78;6270428;28;19921;-66
2022/07/07 13:47:39;;;;;;;;;;;;;;;25.91;33.30;96904.69;6270478;28;19925;-66
2022/07/07 13:50:42;;;;;;;;;;;;;;;26.06;33.55;96896.50;6270335;28;19967;-65
2022/07/07 13:53:46;;;;;;;;;;;;;;;26.15;33.74;96889.91;6269867;28;19931;-65
2022/07/07 13:56:50;;;;;;;;;;;;;;;26.10;33.67;96894.22;6270414;28;20309;-66
2022/07/07 13:59:54;;;;;;;;;;;;;;;25.98;33.82;96905.56;6269994;28;19924;-66
2022/07/07 14:02:57;;;;;;;;;;;;;;;26.11;33.40;96890.50;6252378;28;20394;-65
2022/07/07 14:06:01;;;;;;;;;;;;;;;26.26;33.38;96898.50;6270127;28;20387;-65
2022/07/07 14:09:05;;;;;;;;;;;;;;;26.32;33.04;96901.22;6270100;28;19925;-65
2022/07/07 14:12:09;;;;;;;;;;;;;;;26.30;33.45;96906.00;6270093;28;19925;-65
2022/07/07 14:15:12;;;;;;;;;;;;;;;26.05;33.72;96894.00;6270211;28;19925;-66
2022/07/07 14:18:14;;;;;;;;;;;;;;;25.75;34.50;96899.53;6270046;28;20059;-66
2022/07/07 14:21:16;;;;;;;;;;;;;;;25.79;34.33;96900.81;6269970;28;19945;-65
2022/07/07 14:24:19;;;;;;;;;;;;;;;26.06;34.35;96899.19;6270343;28;19925;-66
2022/07/07 14:27:27;;;;;;;;;;;;;;;26.37;33.60;96896.06;6270150;28;19948;-65
2022/07/07 14:30:30;;;;;;;;;;;;;;;26.61;33.75;96897.50;6269903;28;19925;-65
2022/07/07 14:33:34;;;;;;;;;;;;;;;26.19;33.94;96901.16;6270170;28;19925;-65
2022/07/07 14:36:37;;;;;;;;;;;;;;;25.92;34.86;96903.63;6269896;28;19924;-65
2022/07/07 14:39:41;;;;;;;;;;;;;;;25.75;35.04;96904.91;6270090;28;20015;-65
2022/07/07 14:42:45;;;;;;;;;;;;;;;25.43;35.15;96907.13;6269911;28;19925;-64
2022/07/07 14:45:48;;;;;;;;;;;;;;;25.11;35.89;96919.19;6269727;28;19931;-64
2022/07/07 14:48:52;;;;;;;;;;;;;;;24.68;37.31;96912.84;6269743;28;19925;-64
2022/07/07 14:51:56;;;;;;;;;;;;;;;24.13;38.24;96918.47;6270000;28;20402;-65
2022/07/07 14:55:00;;;;;;;;;;;;;;;23.75;39.08;96926.56;6269525;28;19924;-65
2022/07/07 14:58:06;;;;;;;;;;;;;;;23.51;39.35;96932.09;6269712;28;19924;-65
2022/07/07 15:01:09;;;;;;;;;;;;;;;23.54;40.00;96923.66;6269447;28;20294;-65
2022/07/07 15:04:13;;;;;;;;;;;;;;;23.51;39.80;96918.66;6271792;28;19931;-65
2022/07/07 15:07:16;;;;;;;;;;;;;;;23.49;40.15;96923.38;6274282;28;19925;-65
2022/07/07 15:10:19;;;;;;;;;;;;;;;23.44;40.01;96926.63;6274167;28;19932;-65
2022/07/07 15:13:22;;;;;;;;;;;;;;;23.47;40.34;96925.41;6274156;28;20390;-64
2022/07/07 15:16:25;;;;;;;;;;;;;;;23.31;40.63;96929.03;6274087;28;19925;-65
2022/07/07 15:19:29;;;;;;;;;;;;;;;23.09;40.94;96922.63;6273982;28;19924;-66
2022/07/07 15:22:33;;;;;;;;;;;;;;;22.96;41.64;96922.38;6273939;28;19931;-65
2022/07/07 15:25:37;;;;;;;;;;;;;;;22.86;42.17;96918.03;6255793;28;19935;-65
2022/07/07 15:28:41;;;;;;;;;;;;;;;22.72;42.12;96921.44;6273925;28;19924;-65
2022/07/07 15:31:45;;;;;;;;;;;;;;;22.59;42.35;96915.78;6255540;28;19955;-65
2022/07/07 15:34:48;;;;;;;;;;;;;;;22.53;42.80;96922.72;6273369;28;19925;-66
2022/07/07 15:37:51;;;;;;;;;;;;;;;22.58;42.35;96922.19;6273409;28;20306;-66
2022/07/07 15:40:55;;;;;;;;;;;;;;;22.74;42.05;96935.53;6273252;28;19924;-65
2022/07/07 15:43:59;;;;;;;;;;;;;;;22.84;41.82;96930.81;6273487;28;19924;-65
2022/07/07 15:47:03;;;;;;;;;;;;;;;22.95;42.02;96934.09;6272062;28;19925;-66
2022/07/07 15:50:07;;;;;;;;;;;;;;;22.93;41.70;96934.28;6273133;28;19925;-65
2022/07/07 15:53:10;;;;;;;;;;;;;;;22.98;41.92;96933.75;6254805;28;19925;-65
2022/07/07 15:56:14;;;;;;;;;;;;;;;22.98;41.98;96941.81;6273148;28;20406;-65
2022/07/07 15:59:17;;;;;;;;;;;;;;;22.95;41.80;96942.13;6272595;28;19925;-65
2022/07/07 16:02:21;;;;;;;;;;;;;;;22.92;42.26;96945.16;6255282;28;20023;-65